Usk, Canada
Current Conditions -  °F | °C
As of 4:00 PM on Wednesday 26 Nov 2014 (Local Time) from CYXT Reporting Station
Broken Clouds Broken Clouds  
Wind Chill: 22°   Ceiling: 22000
Heat Index: 34°   Visibility: 20mi
Dew Point: 28°   Wind: 21mph
Humidity: 81%   Direction: 10°N
Pressure: 29.95"   Gusts: 29mph
Location:  54.64°N, 128.41°W
Report Text: CYXT 270000Z 01018G25KT 20SM FEW012 FEW070 BKN220 01/M02 A2995 RMK SF1AC1CI3 SLP153
Loading
Personal Weather Stations






























Interactive Weather Map New forecast layout! Learn more

10-Day Weather Forecast

Advertisements
Track Severe Weather on mobile